Time;durP1;ratioP1;P1;durP2;ratioP2;P2;SDS_P1;SDS_P2;PMS_P1;PMS_P2;Temp;Humidity;BMP_temperature;BMP_pressure;BME280_temperature;BME280_humidity;BME280_pressure;Samples;Min_cycle;Max_cycle;Signal;HPM_P1;HPM_P2
2022/03/15 00:00:16;;;;;;;;;;;;;;;5.14;100.00;102779.84;5250676;28;20370;-81
2022/03/15 00:02:48;;;;;;;;;;;;;;;5.12;100.00;102776.50;5250316;28;19917;-79
2022/03/15 00:05:18;;;;;;;;;;;;;;;5.12;100.00;102771.97;5250337;28;19916;-81
2022/03/15 00:07:49;;;;;;;;;;;;;;;5.13;100.00;102773.66;5255083;28;20271;-80
2022/03/15 00:10:19;;;;;;;;;;;;;;;5.14;100.00;102769.97;5236741;28;19938;-81
2022/03/15 00:12:50;;;;;;;;;;;;;;;5.16;100.00;102772.47;5239473;28;19976;-82
2022/03/15 00:15:21;;;;;;;;;;;;;;;5.18;100.00;102771.31;5257173;28;19920;-81
2022/03/15 00:17:52;;;;;;;;;;;;;;;5.27;100.00;102769.41;5257721;28;19912;-81
2022/03/15 00:20:23;;;;;;;;;;;;;;;5.29;100.00;102772.75;5257980;28;19913;-81
2022/03/15 00:22:57;;;;;;;;;;;;;;;5.27;100.00;102764.88;5257953;28;19913;-80
2022/03/15 00:25:27;;;;;;;;;;;;;;;5.24;100.00;102761.72;5256889;28;19913;-79
2022/03/15 00:27:59;;;;;;;;;;;;;;;5.19;100.00;102754.22;5257051;28;20003;-81
2022/03/15 00:30:29;;;;;;;;;;;;;;;5.13;100.00;102752.22;5257105;28;20006;-80
2022/03/15 00:32:59;;;;;;;;;;;;;;;5.10;100.00;102757.94;5256791;28;20343;-79
2022/03/15 00:35:30;;;;;;;;;;;;;;;5.08;100.00;102755.44;5239602;28;19917;-79
2022/03/15 00:38:00;;;;;;;;;;;;;;;5.09;100.00;102751.75;5257051;28;20022;-80
2022/03/15 00:40:30;;;;;;;;;;;;;;;5.12;100.00;102755.91;5239153;28;19913;-80
2022/03/15 00:43:00;;;;;;;;;;;;;;;5.16;100.00;102759.91;5256751;28;19939;-81
2022/03/15 00:45:31;;;;;;;;;;;;;;;5.19;100.00;102764.09;5256324;28;19948;-80
2022/03/15 00:48:01;;;;;;;;;;;;;;;5.15;100.00;102760.94;5257777;28;19935;-81
2022/03/15 00:50:32;;;;;;;;;;;;;;;5.08;100.00;102768.81;5239377;28;20634;-83
2022/03/15 00:53:03;;;;;;;;;;;;;;;5.01;100.00;102767.81;5256757;28;19923;-81
2022/03/15 00:55:33;;;;;;;;;;;;;;;4.98;100.00;102764.66;5256983;28;19972;-81
2022/03/15 00:58:05;;;;;;;;;;;;;;;4.99;100.00;102769.84;5256710;28;19912;-81
2022/03/15 01:00:35;;;;;;;;;;;;;;;5.01;100.00;102762.47;5256663;28;19913;-80
2022/03/15 01:03:06;;;;;;;;;;;;;;;5.03;100.00;102757.78;5256743;28;20286;-80
2022/03/15 01:05:36;;;;;;;;;;;;;;;5.04;100.00;102750.59;5256544;28;20510;-84
2022/03/15 01:08:06;;;;;;;;;;;;;;;5.04;100.00;102747.91;5256041;28;19971;-80
2022/03/15 01:10:36;;;;;;;;;;;;;;;5.08;100.00;102759.94;5255987;28;19951;-81
2022/03/15 01:13:07;;;;;;;;;;;;;;;5.12;100.00;102742.53;5256724;28;20425;-81
2022/03/15 01:15:44;;;;;;;;;;;;;;;5.22;100.00;102737.78;5255795;28;19920;-80
2022/03/15 01:18:14;;;;;;;;;;;;;;;5.31;100.00;102739.41;5256424;28;19913;-80
2022/03/15 01:20:45;;;;;;;;;;;;;;;5.37;100.00;102738.72;5256872;28;19913;-80
2022/03/15 01:23:15;;;;;;;;;;;;;;;5.37;100.00;102735.22;5239249;28;19912;-81
2022/03/15 01:25:45;;;;;;;;;;;;;;;5.35;100.00;102738.06;5257587;28;19920;-81
2022/03/15 01:28:16;;;;;;;;;;;;;;;5.31;100.00;102725.19;5256957;28;19920;-81
2022/03/15 01:30:46;;;;;;;;;;;;;;;5.24;100.00;102734.91;5256526;28;19924;-81
2022/03/15 01:33:17;;;;;;;;;;;;;;;5.15;100.00;102739.50;5256967;28;20374;-80
2022/03/15 01:35:48;;;;;;;;;;;;;;;5.08;100.00;102744.72;5256669;28;19966;-80
2022/03/15 01:38:18;;;;;;;;;;;;;;;5.03;100.00;102735.53;5260093;28;19912;-81
2022/03/15 01:40:48;;;;;;;;;;;;;;;4.99;100.00;102728.84;5260839;28;19920;-81
2022/03/15 01:43:19;;;;;;;;;;;;;;;4.96;100.00;102729.19;5242043;28;19923;-81
2022/03/15 01:45:49;;;;;;;;;;;;;;;4.95;100.00;102719.50;5260050;28;19956;-79
2022/03/15 01:48:20;;;;;;;;;;;;;;;4.96;100.00;102716.63;5242243;28;20350;-81
2022/03/15 01:50:50;;;;;;;;;;;;;;;5.01;100.00;102716.13;5260938;28;19913;-82
2022/03/15 01:53:21;;;;;;;;;;;;;;;5.06;100.00;102716.44;5260149;28;19938;-82
2022/03/15 01:55:51;;;;;;;;;;;;;;;5.09;100.00;102708.91;5243046;28;19963;-82
2022/03/15 01:58:21;;;;;;;;;;;;;;;5.10;100.00;102709.72;5260299;28;19957;-82
2022/03/15 02:00:52;;;;;;;;;;;;;;;5.09;100.00;102708.06;5260577;28;20023;-81
2022/03/15 02:03:23;;;;;;;;;;;;;;;5.07;100.00;102704.72;5242718;28;19912;-82
2022/03/15 02:05:53;;;;;;;;;;;;;;;5.05;100.00;102698.69;5260783;28;19913;-82
2022/03/15 02:08:23;;;;;;;;;;;;;;;5.01;100.00;102706.25;5261051;28;20176;-81
2022/03/15 02:10:54;;;;;;;;;;;;;;;4.97;100.00;102701.41;5260617;28;19952;-82
2022/03/15 02:13:24;;;;;;;;;;;;;;;4.97;100.00;102704.09;5259893;28;19926;-82
2022/03/15 02:15:54;;;;;;;;;;;;;;;4.92;100.00;102696.56;5242334;28;19912;-81
2022/03/15 02:18:26;;;;;;;;;;;;;;;4.94;100.00;102693.72;5242966;28;19919;-84
2022/03/15 02:20:56;;;;;;;;;;;;;;;5.03;100.00;102690.00;5260399;28;20286;-81
2022/03/15 02:23:27;;;;;;;;;;;;;;;5.10;100.00;102690.97;5260443;28;20068;-82
2022/03/15 02:25:57;;;;;;;;;;;;;;;5.10;100.00;102685.63;5260850;28;19983;-82
2022/03/15 02:28:27;;;;;;;;;;;;;;;5.13;100.00;102677.25;5242617;28;19981;-82
2022/03/15 02:30:58;;;;;;;;;;;;;;;5.16;100.00;102671.53;5259648;28;20019;-80
2022/03/15 02:33:28;;;;;;;;;;;;;;;5.18;100.00;102672.22;5242099;28;19922;-80
2022/03/15 02:35:58;;;;;;;;;;;;;;;5.15;100.00;102667.19;5242635;28;19980;-81
2022/03/15 02:38:28;;;;;;;;;;;;;;;5.11;100.00;102665.88;5241938;28;19935;-80
2022/03/15 02:40:59;;;;;;;;;;;;;;;5.14;100.00;102668.22;5260320;28;19963;-82
2022/03/15 02:43:30;;;;;;;;;;;;;;;5.11;100.00;102657.84;5242024;28;19963;-82
2022/03/15 02:46:00;;;;;;;;;;;;;;;5.13;100.00;102650.47;5260373;28;19913;-81
2022/03/15 02:48:30;;;;;;;;;;;;;;;5.20;100.00;102642.56;5242123;28;19919;-81
2022/03/15 02:51:08;;;;;;;;;;;;;;;5.25;100.00;102641.00;5259688;28;19919;-81
2022/03/15 02:53:38;;;;;;;;;;;;;;;5.33;100.00;102630.25;5259894;28;19968;-82
2022/03/15 02:56:10;;;;;;;;;;;;;;;5.38;100.00;102629.72;5260079;28;19916;-81
2022/03/15 02:58:41;;;;;;;;;;;;;;;5.39;100.00;102628.69;5259748;28;19923;-82
2022/03/15 03:01:11;;;;;;;;;;;;;;;5.40;100.00;102631.22;5259455;28;20309;-80
2022/03/15 03:03:42;;;;;;;;;;;;;;;5.39;100.00;102626.03;5259062;28;19913;-80
2022/03/15 03:06:12;;;;;;;;;;;;;;;5.38;100.00;102622.50;5259539;28;19972;-81
2022/03/15 03:08:43;;;;;;;;;;;;;;;5.39;100.00;102626.03;5259794;28;19970;-81
2022/03/15 03:11:14;;;;;;;;;;;;;;;5.38;100.00;102617.16;5258946;28;19923;-81
2022/03/15 03:13:44;;;;;;;;;;;;;;;5.33;100.00;102611.50;5258972;28;19912;-80
2022/03/15 03:16:15;;;;;;;;;;;;;;;5.30;100.00;102614.53;5259685;28;19912;-80
2022/03/15 03:18:45;;;;;;;;;;;;;;;5.29;100.00;102610.19;5259239;28;20282;-81
2022/03/15 03:21:15;;;;;;;;;;;;;;;5.28;100.00;102611.19;5259007;28;20045;-81
2022/03/15 03:23:46;;;;;;;;;;;;;;;5.28;100.00;102605.84;5258410;28;19980;-81
2022/03/15 03:26:16;;;;;;;;;;;;;;;5.24;100.00;102603.69;5260022;28;19955;-82
2022/03/15 03:28:47;;;;;;;;;;;;;;;5.18;100.00;102596.38;5259087;28;19917;-81
2022/03/15 03:31:17;;;;;;;;;;;;;;;5.19;100.00;102596.22;5259057;28;19934;-79
2022/03/15 03:33:48;;;;;;;;;;;;;;;5.24;100.00;102598.31;5259085;28;19969;-82
2022/03/15 03:36:18;;;;;;;;;;;;;;;5.26;100.00;102594.47;5260210;28;19917;-81
2022/03/15 03:38:49;;;;;;;;;;;;;;;5.29;100.00;102595.94;5258995;28;20354;-81
2022/03/15 03:41:19;;;;;;;;;;;;;;;5.31;100.00;102594.75;5259760;28;19913;-82
2022/03/15 03:43:49;;;;;;;;;;;;;;;5.34;100.00;102594.41;5242053;28;19947;-82
2022/03/15 03:46:20;;;;;;;;;;;;;;;5.34;100.00;102597.09;5260946;28;19913;-81
2022/03/15 03:48:50;;;;;;;;;;;;;;;5.36;100.00;102600.41;5244138;28;19923;-83
2022/03/15 03:51:21;;;;;;;;;;;;;;;5.33;100.00;102603.47;5263304;28;19919;-81
2022/03/15 03:53:51;;;;;;;;;;;;;;;5.25;100.00;102600.81;5245082;28;19913;-82
2022/03/15 03:56:21;;;;;;;;;;;;;;;5.18;100.00;102605.25;5263358;28;19966;-82
2022/03/15 03:58:52;;;;;;;;;;;;;;;5.18;100.00;102604.41;5263306;28;19912;-81
2022/03/15 04:01:22;;;;;;;;;;;;;;;5.12;100.00;102610.47;5262972;28;19912;-81
2022/03/15 04:03:53;;;;;;;;;;;;;;;5.07;100.00;102621.72;5259270;28;19958;-79
2022/03/15 04:06:23;;;;;;;;;;;;;;;5.08;100.00;102620.69;5259481;28;19912;-80
2022/03/15 04:08:56;;;;;;;;;;;;;;;5.04;100.00;102614.88;5260462;28;19916;-80
2022/03/15 04:11:28;;;;;;;;;;;;;;;5.02;100.00;102618.72;5244886;28;19924;-81
2022/03/15 04:14:03;;;;;;;;;;;;;;;5.04;100.00;102603.31;5263072;28;19916;-81
2022/03/15 04:16:34;;;;;;;;;;;;;;;5.06;100.00;102609.34;5248608;28;19959;-80
2022/03/15 04:19:04;;;;;;;;;;;;;;;5.11;100.00;102609.63;5268575;28;19912;-81
2022/03/15 04:21:35;;;;;;;;;;;;;;;5.15;100.00;102610.97;5266954;28;19962;-81
2022/03/15 04:24:05;;;;;;;;;;;;;;;5.19;100.00;102601.56;5266708;28;19923;-80
2022/03/15 04:26:35;;;;;;;;;;;;;;;5.24;100.00;102599.16;5248904;28;19912;-81
2022/03/15 04:29:06;;;;;;;;;;;;;;;5.31;100.00;102600.13;5267623;28;19922;-82
2022/03/15 04:31:36;;;;;;;;;;;;;;;5.43;100.00;102584.47;5245427;28;19966;-81
2022/03/15 04:34:07;;;;;;;;;;;;;;;5.52;100.00;102590.56;5258253;28;19920;-81
2022/03/15 04:36:40;;;;;;;;;;;;;;;5.56;100.00;102587.34;5258195;28;19920;-82
2022/03/15 04:39:13;;;;;;;;;;;;;;;5.56;100.00;102587.34;5257582;28;19916;-82
2022/03/15 04:41:45;;;;;;;;;;;;;;;5.51;100.00;102587.06;5258709;28;19913;-83
2022/03/15 04:44:16;;;;;;;;;;;;;;;5.47;100.00;102588.47;5258693;28;19919;-82
2022/03/15 04:46:46;;;;;;;;;;;;;;;5.41;100.00;102587.31;5261125;28;19948;-82
2022/03/15 04:49:16;;;;;;;;;;;;;;;5.35;100.00;102582.69;5241817;28;19916;-82
2022/03/15 04:51:48;;;;;;;;;;;;;;;5.39;100.00;102575.97;5259186;28;19912;-82
2022/03/15 04:54:18;;;;;;;;;;;;;;;5.45;100.00;102565.53;5260423;28;19920;-81
2022/03/15 04:56:48;;;;;;;;;;;;;;;5.50;100.00;102565.81;5242686;28;20345;-82
2022/03/15 04:59:19;;;;;;;;;;;;;;;5.47;100.00;102561.66;5260558;28;20306;-82
2022/03/15 05:01:49;;;;;;;;;;;;;;;5.49;100.00;102564.97;5259152;28;19912;-81
2022/03/15 05:04:19;;;;;;;;;;;;;;;5.50;100.00;102560.44;5257513;28;19955;-81
2022/03/15 05:06:50;;;;;;;;;;;;;;;5.50;100.00;102560.44;5236217;28;19913;-79
2022/03/15 05:09:20;;;;;;;;;;;;;;;5.47;100.00;102558.16;5250694;28;20445;-78
2022/03/15 05:11:50;;;;;;;;;;;;;;;5.46;100.00;102557.31;5248473;28;20294;-82
2022/03/15 05:14:20;;;;;;;;;;;;;;;5.47;100.00;102558.16;5232728;28;19919;-80
2022/03/15 05:16:51;;;;;;;;;;;;;;;5.49;100.00;102550.75;5257021;28;19912;-79
2022/03/15 05:19:22;;;;;;;;;;;;;;;5.48;100.00;102547.25;5260446;28;19952;-79
2022/03/15 05:21:53;;;;;;;;;;;;;;;5.47;100.00;102545.59;5260281;28;19952;-83
2022/03/15 05:24:26;;;;;;;;;;;;;;;5.47;100.00;102540.22;5260249;28;19922;-80
2022/03/15 05:26:57;;;;;;;;;;;;;;;5.45;100.00;102536.06;5261616;28;19943;-82
2022/03/15 05:29:28;;;;;;;;;;;;;;;5.38;100.00;102531.44;5260156;28;19916;-80
2022/03/15 05:31:58;;;;;;;;;;;;;;;5.37;100.00;102531.59;5260081;28;19916;-82
2022/03/15 05:34:28;;;;;;;;;;;;;;;5.34;100.00;102535.47;5258907;28;19919;-83
2022/03/15 05:36:59;;;;;;;;;;;;;;;5.34;100.00;102529.28;5263695;28;19955;-82
2022/03/15 05:39:29;;;;;;;;;;;;;;;5.33;100.00;102528.44;5264678;28;19924;-80
2022/03/15 05:42:00;;;;;;;;;;;;;;;5.32;100.00;102523.28;5264299;28;19912;-83
2022/03/15 05:44:30;;;;;;;;;;;;;;;5.31;100.00;102522.44;5259384;28;19923;-80
2022/03/15 05:47:00;;;;;;;;;;;;;;;5.33;100.00;102522.25;5261204;28;19920;-81
2022/03/15 05:49:31;;;;;;;;;;;;;;;5.33;100.00;102519.59;5262253;28;19923;-82
2022/03/15 05:52:03;;;;;;;;;;;;;;;5.34;100.00;102523.94;5260036;28;19963;-82
2022/03/15 05:54:34;;;;;;;;;;;;;;;5.34;100.00;102514.03;5241929;28;19912;-82
2022/03/15 05:57:04;;;;;;;;;;;;;;;5.38;100.00;102525.22;5260001;28;19916;-84
2022/03/15 05:59:34;;;;;;;;;;;;;;;5.39;100.00;102519.69;5242742;28;19920;-84
2022/03/15 06:02:05;;;;;;;;;;;;;;;5.41;100.00;102530.22;5260188;28;19912;-84
2022/03/15 06:04:35;;;;;;;;;;;;;;;5.42;100.00;102527.38;5259582;28;19913;-81
2022/03/15 06:07:06;;;;;;;;;;;;;;;5.46;100.00;102527.00;5257903;28;20303;-84
2022/03/15 06:09:36;;;;;;;;;;;;;;;5.51;100.00;102525.44;5258841;28;19927;-84
2022/03/15 06:12:07;;;;;;;;;;;;;;;5.58;100.00;102517.50;5240744;28;20011;-83
2022/03/15 06:14:37;;;;;;;;;;;;;;;5.67;100.00;102509.22;5257557;28;19919;-81
2022/03/15 06:17:13;;;;;;;;;;;;;;;5.74;100.00;102515.50;5257221;28;20248;-85
2022/03/15 06:19:43;;;;;;;;;;;;;;;5.76;100.00;102520.69;5239801;28;20303;-85
2022/03/15 06:22:14;;;;;;;;;;;;;;;5.75;100.00;102527.91;5239716;28;19920;-84
2022/03/15 06:24:44;;;;;;;;;;;;;;;5.77;100.00;102530.41;5241132;28;20448;-81
2022/03/15 06:27:15;;;;;;;;;;;;;;;5.74;100.00;102522.72;5258303;28;20073;-80
2022/03/15 06:29:45;;;;;;;;;;;;;;;5.73;100.00;102531.78;5242063;28;19916;-83
2022/03/15 06:32:16;;;;;;;;;;;;;;;5.71;100.00;102531.13;5261790;28;19912;-82
2022/03/15 06:34:46;;;;;;;;;;;;;;;5.72;100.00;102527.44;5242546;28;20129;-82
2022/03/15 06:37:17;;;;;;;;;;;;;;;5.74;100.00;102528.09;5243878;28;19916;-83
2022/03/15 06:39:48;;;;;;;;;;;;;;;5.73;100.00;102518.38;5261719;28;19913;-82
2022/03/15 06:42:18;;;;;;;;;;;;;;;5.75;100.00;102519.03;5261256;28;19917;-84
2022/03/15 06:44:50;;;;;;;;;;;;;;;5.78;100.00;102521.31;5260093;28;21456;-84
2022/03/15 06:47:21;;;;;;;;;;;;;;;5.84;100.00;102512.53;5263704;28;19900;-81
2022/03/15 06:49:51;;;;;;;;;;;;;;;5.91;100.00;102521.56;5274046;28;19943;-79
2022/03/15 06:52:21;;;;;;;;;;;;;;;5.98;100.00;102517.13;5255683;28;19978;-83
2022/03/15 06:54:52;;;;;;;;;;;;;;;6.10;100.00;102512.94;5270126;28;19912;-82
2022/03/15 06:57:22;;;;;;;;;;;;;;;6.22;100.00;102509.78;5272425;28;19956;-80
2022/03/15 06:59:56;;;;;;;;;;;;;;;6.30;100.00;102504.34;5250151;28;19900;-82
2022/03/15 07:02:26;;;;;;;;;;;;;;;6.38;100.00;102505.03;5263479;28;19971;-85
2022/03/15 07:04:57;;;;;;;;;;;;;;;6.45;100.00;102502.44;5261407;28;20393;-83
2022/03/15 07:07:27;;;;;;;;;;;;;;;6.53;100.00;102505.03;5243304;28;19913;-83
2022/03/15 07:09:58;;;;;;;;;;;;;;;6.62;100.00;102498.53;5243345;28;19951;-83
2022/03/15 07:12:29;;;;;;;;;;;;;;;6.67;100.00;102498.75;5260900;28;19916;-84
2022/03/15 07:15:00;;;;;;;;;;;;;;;6.72;100.00;102492.81;5243414;28;19921;-82
2022/03/15 07:17:31;;;;;;;;;;;;;;;6.79;100.00;102496.41;5261545;28;19918;-84
2022/03/15 07:20:02;;;;;;;;;;;;;;;6.90;100.00;102484.34;5260507;28;19984;-80
2022/03/15 07:22:32;;;;;;;;;;;;;;;7.01;100.00;102489.19;5244454;28;19996;-83
2022/03/15 07:28:10;;;;;;;;;;;;;;;7.18;100.00;102489.78;5262379;28;20349;-84
2022/03/15 07:30:41;;;;;;;;;;;;;;;7.23;100.00;102479.25;5262082;28;20192;-84
2022/03/15 07:33:11;;;;;;;;;;;;;;;7.27;100.00;102489.41;5242706;28;20343;-84
2022/03/15 07:35:41;;;;;;;;;;;;;;;7.35;100.00;102488.47;5260232;28;19920;-84
2022/03/15 07:38:16;;;;;;;;;;;;;;;7.42;100.00;102484.81;5261378;28;19999;-84
2022/03/15 07:40:48;;;;;;;;;;;;;;;7.48;100.00;102479.69;5261747;28;19912;-82
2022/03/15 07:43:23;;;;;;;;;;;;;;;7.43;100.00;102486.47;5243136;28;19920;-83
2022/03/15 07:45:53;;;;;;;;;;;;;;;7.34;100.00;102479.56;5264092;28;19920;-85
2022/03/15 07:48:24;;;;;;;;;;;;;;;7.24;100.00;102476.38;5265240;28;19912;-84
2022/03/15 07:50:54;;;;;;;;;;;;;;;7.16;100.00;102473.84;5264757;28;19928;-84
2022/03/15 07:53:24;;;;;;;;;;;;;;;7.16;100.00;102473.00;5261314;28;19928;-84
2022/03/15 07:55:56;;;;;;;;;;;;;;;7.19;100.00;102476.16;5240209;28;19916;-83
2022/03/15 07:58:27;;;;;;;;;;;;;;;7.24;100.00;102464.78;5257439;28;19935;-83
2022/03/15 08:00:58;;;;;;;;;;;;;;;7.34;100.00;102481.41;5256412;28;19912;-83
2022/03/15 08:03:29;;;;;;;;;;;;;;;7.42;100.00;102471.38;5239538;28;19912;-83
2022/03/15 08:05:59;;;;;;;;;;;;;;;7.52;100.00;102468.31;5261891;28;19927;-83
2022/03/15 08:08:30;;;;;;;;;;;;;;;7.65;100.00;102467.56;5288759;22;19977;-55
2022/03/15 08:11:06;;;;;;;;;;;;;;;7.73;100.00;102460.19;5235110;28;19990;-56
2022/03/15 08:13:36;;;;;;;;;;;;;;;7.83;100.00;102462.50;5230440;28;19912;-57
2022/03/15 08:16:06;;;;;;;;;;;;;;;7.90;100.00;102460.69;5230803;28;19920;-56
2022/03/15 08:18:37;;;;;;;;;;;;;;;7.98;100.00;102457.84;5230692;28;20429;-55
2022/03/15 08:21:07;;;;;;;;;;;;;;;8.07;100.00;102461.19;5229875;28;19965;-55
2022/03/15 08:23:38;;;;;;;;;;;;;;;8.14;100.00;102462.88;5229622;28;19962;-55
2022/03/15 08:26:08;;;;;;;;;;;;;;;8.21;100.00;102470.13;5230022;28;20495;-55
2022/03/15 08:28:39;;;;;;;;;;;;;;;8.31;100.00;102465.22;5230016;28;19916;-54
2022/03/15 08:31:09;;;;;;;;;;;;;;;8.36;100.00;102460.94;5229882;28;20398;-56
2022/03/15 08:33:39;;;;;;;;;;;;;;;8.42;100.00;102464.66;5271922;22;19928;-95
2022/03/15 08:36:10;;;;;;;;;;;;;;;8.49;100.00;102454.75;5228958;28;19926;-94
2022/03/15 08:38:41;;;;;;;;;;;;;;;8.56;100.00;102452.91;5214657;28;19990;-93
2022/03/15 08:41:11;;;;;;;;;;;;;;;8.59;100.00;102455.19;5214521;28;19936;-93
2022/03/15 08:43:42;;;;;;;;;;;;;;;8.63;100.00;102450.22;5214040;28;19932;-95
2022/03/15 08:46:13;;;;;;;;;;;;;;;8.66;100.00;102456.00;5213868;28;19932;-93
2022/03/15 08:48:43;;;;;;;;;;;;;;;8.70;100.00;102449.19;5213806;28;19967;-95
2022/03/15 08:51:14;;;;;;;;;;;;;;;8.74;100.00;102449.59;5214864;28;19992;-94
2022/03/15 08:53:45;;;;;;;;;;;;;;;8.79;100.00;102445.28;5213282;28;19916;-94
2022/03/15 08:56:16;;;;;;;;;;;;;;;8.82;100.00;102446.72;5210981;28;19913;-93
2022/03/15 08:58:54;;;;;;;;;;;;;;;8.87;100.00;102435.34;5211917;28;19973;-93
2022/03/15 09:01:27;;;;;;;;;;;;;;;8.91;100.00;102441.97;5212264;28;19910;-95
2022/03/15 09:04:02;;;;;;;;;;;;;;;8.93;100.00;102439.91;5211218;28;19917;-94
2022/03/15 09:06:34;;;;;;;;;;;;;;;8.93;100.00;102434.53;5209980;28;19913;-94
2022/03/15 09:09:05;;;;;;;;;;;;;;;8.97;100.00;102438.44;5223374;28;19924;-94
2022/03/15 09:11:35;;;;;;;;;;;;;;;9.03;100.00;102434.91;5225042;28;19913;-95
2022/03/15 09:14:05;;;;;;;;;;;;;;;9.05;100.00;102439.06;5207736;28;19937;-95
2022/03/15 09:16:37;;;;;;;;;;;;;;;9.10;100.00;102436.59;5222043;28;19902;-95
2022/03/15 09:19:09;;;;;;;;;;;;;;;9.13;100.00;102429.94;5230759;28;19968;-93
2022/03/15 09:21:39;;;;;;;;;;;;;;;9.17;100.00;102431.19;5214744;28;20111;-94
2022/03/15 09:24:09;;;;;;;;;;;;;;;9.27;100.00;102430.75;5211588;28;19945;-93
2022/03/15 09:26:43;;;;;;;;;;;;;;;9.35;100.00;102427.84;5212339;28;19939;-93
2022/03/15 09:29:13;;;;;;;;;;;;;;;9.44;100.00;102424.75;5214082;28;19917;-94
2022/03/15 09:31:43;;;;;;;;;;;;;;;9.54;100.00;102431.53;5214143;28;19988;-94
2022/03/15 09:34:13;;;;;;;;;;;;;;;9.62;100.00;102431.31;5227776;28;19935;-94
2022/03/15 09:36:44;;;;;;;;;;;;;;;9.68;100.00;102425.09;5252264;28;19915;-93
2022/03/15 09:39:16;;;;;;;;;;;;;;;9.71;100.00;102428.19;5234513;28;19980;-94
2022/03/15 09:41:49;;;;;;;;;;;;;;;9.76;100.00;102431.09;5234082;28;19921;-94
2022/03/15 09:44:25;;;;;;;;;;;;;;;9.80;100.00;102418.84;5233778;28;19920;-91
2022/03/15 09:46:58;;;;;;;;;;;;;;;9.92;100.00;102420.84;5234757;28;19911;-93
2022/03/15 09:49:29;;;;;;;;;;;;;;;10.00;100.00;102426.03;5251154;28;19927;-92
2022/03/15 09:52:00;;;;;;;;;;;;;;;10.05;100.00;102421.66;5251879;28;19925;-93
2022/03/15 09:54:30;;;;;;;;;;;;;;;10.12;100.00;102422.41;5233930;28;19932;-92
2022/03/15 09:57:03;;;;;;;;;;;;;;;10.12;100.00;102422.41;5233719;28;19905;-92
2022/03/15 09:59:33;;;;;;;;;;;;;;;10.11;100.00;102422.63;5236309;28;19901;-93
2022/03/15 10:02:04;;;;;;;;;;;;;;;10.13;100.00;102420.56;5254536;28;19943;-93
2022/03/15 10:04:34;;;;;;;;;;;;;;;10.21;100.00;102419.50;5253886;28;19915;-93
2022/03/15 10:07:05;;;;;;;;;;;;;;;10.29;100.00;102413.88;5235377;28;19905;-93
2022/03/15 10:09:36;;;;;;;;;;;;;;;10.33;100.00;102407.84;5255635;28;19921;-93
2022/03/15 10:12:07;;;;;;;;;;;;;;;10.35;100.00;102413.03;5238214;28;19912;-93
2022/03/15 10:14:41;;;;;;;;;;;;;;;10.30;100.00;102408.25;5255346;28;19940;-92
2022/03/15 10:17:14;;;;;;;;;;;;;;;10.37;100.00;102400.13;5238316;28;19920;-93
2022/03/15 10:19:51;;;;;;;;;;;;;;;10.41;100.00;102399.44;5237871;28;19909;-92
2022/03/15 10:22:25;;;;;;;;;;;;;;;10.48;100.00;102394.00;5238491;28;19935;-92
2022/03/15 10:24:56;;;;;;;;;;;;;;;10.48;100.00;102404.81;5255134;28;19968;-91
2022/03/15 10:27:26;;;;;;;;;;;;;;;10.46;100.00;102396.94;5238535;28;19935;-93
2022/03/15 10:29:57;;;;;;;;;;;;;;;10.48;100.00;102399.41;5255243;28;19927;-94
2022/03/15 10:32:28;;;;;;;;;;;;;;;10.48;100.00;102386.75;5255252;28;19908;-94
2022/03/15 10:35:08;;;;;;;;;;;;;;;10.57;100.00;102387.31;5237620;28;19913;-92
2022/03/15 10:37:41;;;;;;;;;;;;;;;10.72;100.00;102390.50;5237956;28;19909;-93
2022/03/15 10:40:12;;;;;;;;;;;;;;;10.88;100.00;102385.63;5255038;28;19992;-93
2022/03/15 10:42:44;;;;;;;;;;;;;;;11.03;100.00;102372.59;5237637;28;19905;-93
2022/03/15 10:45:22;;;;;;;;;;;;;;;11.09;100.00;102372.53;5232360;23;19952;-56
2022/03/15 10:47:53;;;;;;;;;;;;;;;11.20;100.00;102373.69;5210576;28;20011;-57
2022/03/15 10:50:24;;;;;;;;;;;;;;;11.25;100.00;102368.44;5210523;28;19920;-58
2022/03/15 10:52:54;;;;;;;;;;;;;;;11.23;100.00;102367.84;5210363;28;19986;-56
2022/03/15 10:55:28;;;;;;;;;;;;;;;11.21;100.00;102364.53;5210199;28;20004;-58
2022/03/15 10:58:00;;;;;;;;;;;;;;;11.27;100.00;102355.50;5224159;22;19928;-64
2022/03/15 11:00:36;;;;;;;;;;;;;;;11.31;100.00;102356.72;5218478;28;19967;-64
2022/03/15 11:03:13;;;;;;;;;;;;;;;11.35;100.00;102352.50;5231245;28;20299;-65
2022/03/15 11:05:43;;;;;;;;;;;;;;;11.41;100.00;102346.19;5251899;28;20209;-65
2022/03/15 11:08:15;;;;;;;;;;;;;;;11.43;100.00;102346.81;5251565;28;19912;-64
2022/03/15 11:10:46;;;;;;;;;;;;;;;11.39;100.00;102344.78;5251898;28;19928;-64
2022/03/15 11:13:17;;;;;;;;;;;;;;;11.42;100.00;102341.63;5251475;28;19923;-65
2022/03/15 11:15:49;;;;;;;;;;;;;;;11.48;100.00;102340.72;5251741;28;19974;-65
2022/03/15 11:18:19;;;;;;;;;;;;;;;11.44;100.00;102337.63;5251783;28;19965;-64
2022/03/15 11:20:50;;;;;;;;;;;;;;;11.54;100.00;102331.72;5251847;28;19912;-65
2022/03/15 11:23:22;;;;;;;;;;;;;;;11.61;100.00;102318.06;5251411;28;19912;-65
2022/03/15 11:25:56;;;;;;;;;;;;;;;11.75;100.00;102323.09;5251533;28;19993;-65
2022/03/15 11:28:28;;;;;;;;;;;;;;;11.81;100.00;102311.41;5251370;28;19927;-65
2022/03/15 11:30:59;;;;;;;;;;;;;;;11.80;100.00;102306.22;5250404;28;19968;-65
2022/03/15 11:33:30;;;;;;;;;;;;;;;11.78;100.00;102297.50;5250473;28;19943;-65
2022/03/15 11:36:03;;;;;;;;;;;;;;;11.62;100.00;102293.50;5251110;28;19912;-65
2022/03/15 11:38:34;;;;;;;;;;;;;;;11.69;100.00;102288.00;5250987;28;19951;-65
2022/03/15 11:41:05;;;;;;;;;;;;;;;11.86;100.00;102291.75;5251062;28;20355;-65
2022/03/15 11:44:11;;;;;;;;;;;;;;;11.86;100.00;102289.03;5268071;28;20336;-65
2022/03/15 11:46:52;;;;;;;;;;;;;;;11.54;100.00;102298.41;5147109;28;19913;-65
2022/03/15 11:49:25;;;;;;;;;;;;;;;11.28;100.00;102303.06;5239694;28;19922;-66
2022/03/15 11:52:02;;;;;;;;;;;;;;;11.11;100.00;102299.31;5249999;28;19920;-64
2022/03/15 11:54:42;;;;;;;;;;;;;;;10.95;100.00;102308.84;5250114;28;20399;-66
2022/03/15 11:57:27;;;;;;;;;;;;;;;10.83;100.00;102307.91;5250202;28;19962;-65
2022/03/15 11:59:58;;;;;;;;;;;;;;;10.76;100.00;102297.16;5250079;28;19912;-66
2022/03/15 12:02:30;;;;;;;;;;;;;;;10.70;100.00;102284.53;5250157;28;20052;-64
2022/03/15 12:05:15;;;;;;;;;;;;;;;10.65;100.00;102284.41;5250091;28;19912;-65
2022/03/15 12:08:05;;;;;;;;;;;;;;;10.53;100.00;102286.16;5250717;28;20379;-65
2022/03/15 12:10:36;;;;;;;;;;;;;;;10.42;100.00;102284.97;5233635;28;20027;-63
2022/03/15 12:13:09;;;;;;;;;;;;;;;10.37;100.00;102279.44;5250069;28;19912;-64
2022/03/15 12:15:42;;;;;;;;;;;;;;;10.42;100.00;102273.34;5249965;28;19911;-65
2022/03/15 12:18:26;;;;;;;;;;;;;;;10.54;100.00;102266.19;5250077;28;19995;-65
2022/03/15 12:21:02;;;;;;;;;;;;;;;10.60;100.00;102269.91;5249303;28;19912;-65
2022/03/15 12:23:39;;;;;;;;;;;;;;;10.58;100.00;102266.59;5249563;28;19920;-65
2022/03/15 12:26:36;;;;;;;;;;;;;;;10.43;100.00;102266.91;5250156;28;19912;-64
2022/03/15 12:29:16;;;;;;;;;;;;;;;10.26;100.00;102269.34;5244963;28;20401;-65
2022/03/15 12:31:47;;;;;;;;;;;;;;;10.19;100.00;102270.38;5249803;28;20299;-65
2022/03/15 12:34:18;;;;;;;;;;;;;;;10.10;100.00;102270.69;5249363;28;19912;-65
2022/03/15 12:36:54;;;;;;;;;;;;;;;10.11;100.00;102266.06;5249691;28;19969;-67
2022/03/15 12:39:26;;;;;;;;;;;;;;;10.09;100.00;102263.63;5249753;28;19916;-64
2022/03/15 12:42:22;;;;;;;;;;;;;;;10.05;100.00;102259.72;5249567;28;19951;-66
2022/03/15 12:44:59;;;;;;;;;;;;;;;10.14;100.00;102258.38;5244203;28;19978;-66
2022/03/15 12:47:31;;;;;;;;;;;;;;;10.19;100.00;102252.34;5249320;28;19912;-66
2022/03/15 12:50:07;;;;;;;;;;;;;;;10.20;100.00;102256.72;5267527;28;20341;-66
2022/03/15 12:52:42;;;;;;;;;;;;;;;10.14;100.00;102255.66;5249266;28;19912;-66
2022/03/15 12:55:25;;;;;;;;;;;;;;;10.08;100.00;102255.75;5249259;28;20315;-66
2022/03/15 12:58:01;;;;;;;;;;;;;;;10.05;100.00;102248.91;5249123;28;19951;-66